Time;durP1;ratioP1;P1;durP2;ratioP2;P2;SDS_P1;SDS_P2;PMS_P1;PMS_P2;Temp;Humidity;BMP_temperature;BMP_pressure;BME280_temperature;BME280_humidity;BME280_pressure;Samples;Min_cycle;Max_cycle;Signal;HPM_P1;HPM_P2
2023/08/03 00:01:18;;;;;;;11.98;11.27;;;;;;;;;;5076379;28;20071;-75
2023/08/03 00:03:44;;;;;;;13.05;12.25;;;;;;;;;;5078603;28;20020;-76
2023/08/03 00:06:09;;;;;;;13.38;12.43;;;;;;;;;;5078545;28;20736;-75
2023/08/03 00:08:35;;;;;;;11.82;11.13;;;;;;;;;;5079063;28;20135;-75
2023/08/03 00:11:00;;;;;;;13.40;12.52;;;;;;;;;;5078766;28;20055;-67
2023/08/03 00:13:26;;;;;;;12.50;11.80;;;;;;;;;;5067123;28;20066;-68
2023/08/03 00:15:51;;;;;;;12.70;12.00;;;;;;;;;;5078636;28;20036;-66
2023/08/03 00:18:16;;;;;;;12.63;11.82;;;;;;;;;;5084686;28;20050;-66
2023/08/03 00:20:42;;;;;;;13.90;13.00;;;;;;;;;;5082507;28;20420;-74
2023/08/03 00:23:07;;;;;;;13.68;12.88;;;;;;;;;;5076528;28;20040;-74
2023/08/03 00:25:33;;;;;;;12.07;11.38;;;;;;;;;;5080816;28;20036;-67
2023/08/03 00:27:59;;;;;;;14.25;12.15;;;;;;;;;;5079894;28;20032;-65
2023/08/03 00:30:24;;;;;;;13.02;12.25;;;;;;;;;;5079988;28;20032;-66
2023/08/03 00:32:50;;;;;;;13.55;12.70;;;;;;;;;;5072854;28;20060;-67
2023/08/03 00:35:15;;;;;;;13.52;12.73;;;;;;;;;;5075743;28;20040;-66
2023/08/03 00:37:40;;;;;;;11.95;11.15;;;;;;;;;;5076164;28;20040;-65
2023/08/03 00:40:06;;;;;;;12.80;12.00;;;;;;;;;;5074115;28;20033;-66
2023/08/03 00:42:32;;;;;;;12.43;11.73;;;;;;;;;;5077415;28;20036;-66
2023/08/03 00:44:57;;;;;;;12.25;11.55;;;;;;;;;;5072699;28;20078;-67
2023/08/03 00:47:23;;;;;;;13.55;12.65;;;;;;;;;;5083291;28;20037;-66
2023/08/03 00:49:48;;;;;;;12.82;12.02;;;;;;;;;;5075865;28;20031;-65
2023/08/03 00:52:13;;;;;;;13.45;12.65;;;;;;;;;;5073683;28;20047;-66
2023/08/03 00:54:39;;;;;;;12.20;11.23;;;;;;;;;;5073597;28;20054;-65
2023/08/03 00:57:04;;;;;;;12.20;11.50;;;;;;;;;;5075094;28;20072;-66
2023/08/03 00:59:30;;;;;;;13.00;11.63;;;;;;;;;;5072192;28;20066;-66
2023/08/03 01:01:56;;;;;;;13.02;12.23;;;;;;;;;;5073633;28;20527;-67
2023/08/03 01:04:21;;;;;;;13.55;12.75;;;;;;;;;;5075885;28;20040;-67
2023/08/03 01:06:46;;;;;;;14.07;13.13;;;;;;;;;;5074523;28;20028;-65
2023/08/03 01:09:12;;;;;;;12.60;11.90;;;;;;;;;;5077198;28;20055;-66
2023/08/03 01:11:37;;;;;;;13.40;12.60;;;;;;;;;;5077717;28;20032;-66
2023/08/03 01:14:03;;;;;;;12.95;12.15;;;;;;;;;;5076453;28;20119;-65
2023/08/03 01:16:28;;;;;;;12.52;11.82;;;;;;;;;;5078614;28;20417;-65
2023/08/03 01:18:54;;;;;;;12.60;11.68;;;;;;;;;;5076401;28;20506;-66
2023/08/03 01:21:20;;;;;;;13.45;12.65;;;;;;;;;;5073303;28;20444;-66
2023/08/03 01:23:46;;;;;;;12.75;12.00;;;;;;;;;;5076443;28;20481;-66
2023/08/03 01:26:12;;;;;;;11.60;10.90;;;;;;;;;;5076277;28;20120;-64
2023/08/03 01:28:37;;;;;;;12.77;12.05;;;;;;;;;;5074290;28;20038;-65
2023/08/03 01:31:03;;;;;;;12.93;12.18;;;;;;;;;;5075547;28;20420;-66
2023/08/03 01:33:29;;;;;;;13.35;12.43;;;;;;;;;;5078592;28;20032;-66
2023/08/03 01:35:54;;;;;;;12.18;11.38;;;;;;;;;;5077242;28;20028;-74
2023/08/03 01:38:20;;;;;;;12.10;11.40;;;;;;;;;;5075905;28;20040;-77
2023/08/03 01:40:45;;;;;;;12.73;12.02;;;;;;;;;;5076245;28;20107;-77
2023/08/03 01:43:10;;;;;;;13.30;12.50;;;;;;;;;;5075900;28;20043;-77
2023/08/03 01:45:36;;;;;;;12.68;11.95;;;;;;;;;;5078228;28;20028;-75
2023/08/03 01:48:02;;;;;;;13.15;12.38;;;;;;;;;;5080580;28;20481;-69
2023/08/03 01:50:27;;;;;;;12.68;11.93;;;;;;;;;;5078252;28;20048;-64
2023/08/03 01:52:53;;;;;;;11.82;11.13;;;;;;;;;;5080435;28;20165;-64
2023/08/03 01:55:18;;;;;;;12.88;12.02;;;;;;;;;;5081389;28;20089;-67
2023/08/03 01:57:44;;;;;;;12.77;12.02;;;;;;;;;;5081315;28;20584;-65
2023/08/03 02:00:10;;;;;;;12.68;11.98;;;;;;;;;;5078450;28;20028;-75
2023/08/03 02:02:35;;;;;;;13.85;13.05;;;;;;;;;;5077392;28;20039;-77
2023/08/03 02:05:01;;;;;;;14.27;13.48;;;;;;;;;;5080657;28;20027;-76
2023/08/03 02:07:53;;;;;;;14.85;13.95;;;;;;;;;;5076604;28;20043;-77
2023/08/03 02:10:19;;;;;;;15.85;14.95;;;;;;;;;;5079597;28;20048;-78
2023/08/03 02:12:44;;;;;;;15.68;14.77;;;;;;;;;;5080095;28;20058;-75
2023/08/03 02:15:10;;;;;;;20.98;19.67;;;;;;;;;;5077132;28;20040;-79
2023/08/03 02:17:35;;;;;;;17.40;16.42;;;;;;;;;;5077166;28;20375;-77
2023/08/03 02:20:00;;;;;;;22.67;21.48;;;;;;;;;;5076732;28;20090;-76
2023/08/03 02:22:26;;;;;;;24.77;23.48;;;;;;;;;;5080726;28;20131;-76
2023/08/03 02:24:51;;;;;;;26.38;24.90;;;;;;;;;;5078282;28;20032;-73
2023/08/03 02:27:17;;;;;;;26.75;25.35;;;;;;;;;;5080845;28;20127;-75
2023/08/03 02:29:42;;;;;;;26.52;25.13;;;;;;;;;;5075853;28;20032;-74
2023/08/03 02:32:08;;;;;;;27.27;25.85;;;;;;;;;;5078466;28;20373;-74
2023/08/03 02:34:33;;;;;;;23.98;22.67;;;;;;;;;;5077714;28;20477;-73
2023/08/03 02:36:58;;;;;;;28.02;26.52;;;;;;;;;;5081925;28;20094;-72
2023/08/03 02:39:24;;;;;;;30.70;29.08;;;;;;;;;;5080519;28;20036;-76
2023/08/03 02:41:49;;;;;;;28.08;26.58;;;;;;;;;;5083793;28;20024;-78
2023/08/03 02:44:14;;;;;;;26.98;25.58;;;;;;;;;;5077146;28;20062;-77
2023/08/03 02:46:40;;;;;;;27.98;26.48;;;;;;;;;;5081041;28;20024;-67
2023/08/03 02:49:06;;;;;;;26.75;25.35;;;;;;;;;;5080957;28;20125;-76
2023/08/03 02:51:31;;;;;;;29.02;27.52;;;;;;;;;;5077002;28;20035;-75
2023/08/03 02:53:56;;;;;;;29.35;27.85;;;;;;;;;;5080117;28;20177;-75
2023/08/03 02:56:22;;;;;;;29.75;28.15;;;;;;;;;;5077311;28;20047;-78
2023/08/03 02:58:47;;;;;;;30.48;28.75;;;;;;;;;;5080779;28;20663;-75
2023/08/03 03:01:12;;;;;;;29.13;27.63;;;;;;;;;;5077574;28;20050;-66
2023/08/03 03:03:38;;;;;;;26.42;25.02;;;;;;;;;;5077237;28;20036;-68
2023/08/03 03:06:03;;;;;;;25.30;23.90;;;;;;;;;;5077608;28;20466;-66
2023/08/03 03:08:28;;;;;;;25.55;24.15;;;;;;;;;;5078382;28;20456;-67
2023/08/03 03:10:54;;;;;;;24.40;23.00;;;;;;;;;;5076855;28;20401;-67
2023/08/03 03:13:19;;;;;;;28.73;27.17;;;;;;;;;;5075296;28;20039;-65
2023/08/03 03:15:44;;;;;;;25.27;23.95;;;;;;;;;;5078421;28;20521;-68
2023/08/03 03:18:10;;;;;;;25.20;23.80;;;;;;;;;;5073206;28;20043;-67
2023/08/03 03:20:35;;;;;;;25.10;23.70;;;;;;;;;;5077815;28;20036;-67
2023/08/03 03:23:00;;;;;;;20.77;19.52;;;;;;;;;;5075548;28;20036;-66
2023/08/03 03:25:25;;;;;;;25.65;23.65;;;;;;;;;;5077721;28;20032;-67
2023/08/03 03:27:51;;;;;;;20.60;19.50;;;;;;;;;;5076908;28;20036;-68
2023/08/03 03:30:16;;;;;;;24.05;22.75;;;;;;;;;;5078857;28;20123;-67
2023/08/03 03:32:43;;;;;;;20.27;19.17;;;;;;;;;;5075667;28;20623;-67
2023/08/03 03:35:08;;;;;;;21.90;20.45;;;;;;;;;;5075969;28;20044;-67
2023/08/03 03:37:34;;;;;;;21.65;20.25;;;;;;;;;;5079285;28;20050;-66
2023/08/03 03:40:00;;;;;;;20.48;19.38;;;;;;;;;;5079621;28;20047;-66
2023/08/03 03:42:25;;;;;;;21.00;19.70;;;;;;;;;;5076757;28;20055;-65
2023/08/03 03:44:50;;;;;;;20.10;19.00;;;;;;;;;;5076557;28;20020;-66
2023/08/03 03:47:16;;;;;;;23.23;22.00;;;;;;;;;;5076237;28;20324;-66
2023/08/03 03:49:41;;;;;;;27.05;25.15;;;;;;;;;;5073620;28;20094;-66
2023/08/03 03:52:06;;;;;;;20.33;18.88;;;;;;;;;;5077199;28;20173;-65
2023/08/03 03:54:32;;;;;;;19.17;18.08;;;;;;;;;;5080210;28;20059;-63
2023/08/03 03:56:58;;;;;;;21.63;20.08;;;;;;;;;;5078228;28;20086;-67
2023/08/03 03:59:23;;;;;;;21.13;20.02;;;;;;;;;;5076870;28;20035;-67
2023/08/03 04:01:48;;;;;;;23.77;22.50;;;;;;;;;;5078050;28;20040;-66
2023/08/03 04:04:14;;;;;;;23.95;22.67;;;;;;;;;;5079400;28;20033;-66
2023/08/03 04:06:39;;;;;;;27.48;26.02;;;;;;;;;;5078555;28;20043;-67
2023/08/03 04:09:05;;;;;;;24.92;23.52;;;;;;;;;;5072410;28;20071;-67
2023/08/03 04:11:30;;;;;;;30.52;28.90;;;;;;;;;;5073860;28;20731;-65
2023/08/03 04:13:55;;;;;;;23.45;22.15;;;;;;;;;;5083071;28;20560;-65
2023/08/03 04:16:21;;;;;;;22.75;21.55;;;;;;;;;;5078277;28;20239;-65
2023/08/03 04:18:46;;;;;;;20.10;19.00;;;;;;;;;;5080058;28;20124;-65
2023/08/03 04:21:11;;;;;;;20.85;19.73;;;;;;;;;;5072140;28;20178;-64
2023/08/03 04:23:37;;;;;;;20.65;19.55;;;;;;;;;;5072634;28;20029;-66
2023/08/03 04:26:02;;;;;;;20.75;19.65;;;;;;;;;;5074241;28;20362;-64
2023/08/03 04:28:28;;;;;;;25.00;23.50;;;;;;;;;;5077536;28;20354;-65
2023/08/03 04:30:53;;;;;;;21.77;20.58;;;;;;;;;;5073090;28;20024;-65
2023/08/03 04:33:18;;;;;;;21.15;20.02;;;;;;;;;;5075511;28;20554;-65
2023/08/03 04:35:44;;;;;;;20.75;19.38;;;;;;;;;;5077973;28;20131;-65
2023/08/03 04:38:09;;;;;;;23.38;21.65;;;;;;;;;;5075366;28;20082;-64
2023/08/03 04:40:35;;;;;;;22.42;21.23;;;;;;;;;;5074426;28;20618;-65
2023/08/03 04:43:01;;;;;;;23.10;21.73;;;;;;;;;;5078095;28;20552;-66
2023/08/03 04:45:26;;;;;;;21.85;20.45;;;;;;;;;;5072807;28;20029;-66
2023/08/03 04:47:52;;;;;;;24.67;23.38;;;;;;;;;;5075220;28;20028;-65
2023/08/03 04:50:19;;;;;;;20.90;19.77;;;;;;;;;;5072545;28;20029;-64
2023/08/03 04:52:44;;;;;;;17.25;16.25;;;;;;;;;;5073160;28;20028;-65
2023/08/03 04:55:10;;;;;;;17.35;16.35;;;;;;;;;;5076055;28;20485;-65
2023/08/03 04:57:35;;;;;;;15.95;15.05;;;;;;;;;;5075096;28;20116;-64
2023/08/03 05:00:00;;;;;;;14.57;13.65;;;;;;;;;;5076037;28;20169;-66
2023/08/03 05:02:26;;;;;;;15.43;14.52;;;;;;;;;;5075413;28;20078;-64
2023/08/03 05:04:51;;;;;;;15.10;14.20;;;;;;;;;;5074391;28;20032;-65
2023/08/03 05:07:16;;;;;;;13.25;12.40;;;;;;;;;;5077447;28;20032;-66
2023/08/03 05:09:42;;;;;;;13.07;12.32;;;;;;;;;;5082553;28;20074;-63
2023/08/03 05:12:07;;;;;;;18.08;17.05;;;;;;;;;;5076782;28;20043;-65
2023/08/03 05:14:33;;;;;;;13.40;12.60;;;;;;;;;;5078602;28;20059;-65
2023/08/03 05:16:58;;;;;;;15.75;14.65;;;;;;;;;;5078863;28;20047;-63
2023/08/03 05:19:23;;;;;;;12.68;11.88;;;;;;;;;;5079763;28;20032;-65
2023/08/03 05:21:48;;;;;;;13.65;12.85;;;;;;;;;;5080014;28;20036;-64
2023/08/03 05:24:14;;;;;;;12.57;11.80;;;;;;;;;;5075290;28;20145;-65
2023/08/03 05:26:39;;;;;;;13.77;12.98;;;;;;;;;;5078892;28;20757;-64
2023/08/03 05:29:04;;;;;;;15.10;13.82;;;;;;;;;;5080871;28;20055;-64
2023/08/03 05:31:30;;;;;;;14.52;13.68;;;;;;;;;;5083361;28;20040;-65
2023/08/03 05:33:55;;;;;;;14.85;14.05;;;;;;;;;;5079141;28;20116;-65
2023/08/03 05:36:21;;;;;;;14.65;13.85;;;;;;;;;;5077033;28;20614;-64
2023/08/03 05:38:46;;;;;;;15.43;14.52;;;;;;;;;;5086098;28;20373;-65
2023/08/03 05:41:17;;;;;;;15.35;14.45;;;;;;;;;;5075213;28;20037;-65
2023/08/03 05:43:45;;;;;;;14.88;14.07;;;;;;;;;;5078101;28;20458;-64
2023/08/03 05:46:14;;;;;;;14.15;13.35;;;;;;;;;;5084121;28;20508;-65
2023/08/03 05:48:40;;;;;;;15.00;14.10;;;;;;;;;;5079941;28;20075;-64
2023/08/03 05:51:09;;;;;;;14.40;13.60;;;;;;;;;;5078284;28;20048;-64
2023/08/03 05:53:34;;;;;;;13.45;12.65;;;;;;;;;;5078969;28;20035;-66
2023/08/03 05:56:00;;;;;;;13.50;12.70;;;;;;;;;;5083703;28;20043;-65
2023/08/03 05:58:25;;;;;;;13.77;12.88;;;;;;;;;;5079413;28;20039;-65
2023/08/03 06:00:51;;;;;;;12.57;11.88;;;;;;;;;;5082109;28;20532;-65
2023/08/03 06:03:18;;;;;;;12.15;11.45;;;;;;;;;;5078871;28;20492;-65
2023/08/03 06:05:48;;;;;;;14.38;13.57;;;;;;;;;;5083505;28;20024;-72
2023/08/03 06:08:24;;;;;;;12.73;12.00;;;;;;;;;;5077967;28;20033;-74
2023/08/03 06:10:55;;;;;;;12.77;12.07;;;;;;;;;;5082156;28;20120;-73
2023/08/03 06:13:33;;;;;;;13.32;12.52;;;;;;;;;;5083412;28;20051;-78
2023/08/03 06:16:03;;;;;;;12.55;11.82;;;;;;;;;;5082801;28;20051;-74
2023/08/03 06:18:30;;;;;;;13.45;12.65;;;;;;;;;;5085073;28;20122;-67
2023/08/03 06:20:55;;;;;;;13.35;12.55;;;;;;;;;;5080472;28;20031;-67
2023/08/03 06:23:27;;;;;;;13.82;13.02;;;;;;;;;;5082671;28;20032;-66
2023/08/03 06:25:54;;;;;;;16.48;15.52;;;;;;;;;;5079725;28;20028;-66
2023/08/03 06:28:21;;;;;;;13.40;12.60;;;;;;;;;;5080194;28;20036;-68
2023/08/03 06:30:48;;;;;;;13.10;12.30;;;;;;;;;;5078344;28;20055;-66
2023/08/03 06:33:16;;;;;;;13.77;12.98;;;;;;;;;;5076905;28;20096;-65
2023/08/03 06:35:43;;;;;;;14.32;13.52;;;;;;;;;;5074650;28;20032;-66
2023/08/03 06:38:12;;;;;;;13.10;12.30;;;;;;;;;;5074725;28;20751;-66
2023/08/03 06:40:42;;;;;;;15.18;14.27;;;;;;;;;;5080379;28;20036;-68
2023/08/03 06:43:11;;;;;;;14.82;13.95;;;;;;;;;;5073556;28;20035;-66
2023/08/03 06:45:37;;;;;;;15.38;14.50;;;;;;;;;;5079028;28;20051;-65
2023/08/03 06:48:03;;;;;;;18.88;17.23;;;;;;;;;;5072934;28;20451;-65
2023/08/03 06:50:29;;;;;;;16.17;15.27;;;;;;;;;;5076711;28;20087;-65
2023/08/03 06:52:56;;;;;;;18.55;17.55;;;;;;;;;;5077365;28;20660;-67
2023/08/03 06:55:21;;;;;;;19.90;18.80;;;;;;;;;;5078467;28;20437;-65
2023/08/03 06:57:47;;;;;;;22.27;21.08;;;;;;;;;;5081662;28;20074;-67
2023/08/03 07:00:13;;;;;;;25.13;23.80;;;;;;;;;;5077327;28;20114;-68
2023/08/03 07:02:38;;;;;;;22.90;21.70;;;;;;;;;;5079829;28;20110;-69
2023/08/03 07:05:04;;;;;;;29.00;27.33;;;;;;;;;;5076180;28;20482;-69
2023/08/03 07:07:31;;;;;;;33.17;31.45;;;;;;;;;;5080304;28;20037;-66
2023/08/03 07:09:56;;;;;;;33.03;31.33;;;;;;;;;;5079559;28;20028;-67
2023/08/03 07:12:21;;;;;;;29.25;27.75;;;;;;;;;;5082020;28;20524;-68
2023/08/03 07:14:47;;;;;;;34.47;32.70;;;;;;;;;;5078629;28;20036;-67
2023/08/03 07:17:12;;;;;;;35.13;33.28;;;;;;;;;;5077893;28;20032;-68
2023/08/03 07:19:38;;;;;;;35.83;33.97;;;;;;;;;;5077667;28;20036;-65
2023/08/03 07:22:04;;;;;;;36.28;34.40;;;;;;;;;;5079370;28;20589;-67
2023/08/03 07:24:33;;;;;;;37.85;35.90;;;;;;;;;;5076729;28;20032;-70
2023/08/03 07:27:02;;;;;;;41.65;39.50;;;;;;;;;;5078210;28;20043;-67
2023/08/03 07:29:29;;;;;;;38.63;36.53;;;;;;;;;;5075346;28;20044;-67
2023/08/03 07:31:54;;;;;;;35.20;33.38;;;;;;;;;;5079028;28;20032;-68
2023/08/03 07:34:20;;;;;;;34.95;33.00;;;;;;;;;;5081170;28;20028;-68
2023/08/03 07:36:46;;;;;;;38.15;36.22;;;;;;;;;;5075105;28;20676;-69
2023/08/03 07:39:12;;;;;;;36.08;34.13;;;;;;;;;;5074368;28;20147;-68
2023/08/03 07:41:37;;;;;;;34.15;32.40;;;;;;;;;;5077456;28;20485;-69
2023/08/03 07:44:03;;;;;;;35.28;33.47;;;;;;;;;;5080691;28;20055;-69
2023/08/03 07:46:29;;;;;;;35.22;33.22;;;;;;;;;;5074730;28;20037;-69
2023/08/03 07:48:56;;;;;;;33.30;31.58;;;;;;;;;;5080063;28;20044;-67
2023/08/03 07:51:21;;;;;;;32.45;30.75;;;;;;;;;;5076198;28;20056;-68
2023/08/03 07:53:46;;;;;;;30.83;29.23;;;;;;;;;;5074044;28;20058;-67
2023/08/03 07:56:20;;;;;;;30.40;28.80;;;;;;;;;;5078322;28;20040;-68
2023/08/03 07:58:46;;;;;;;30.17;28.48;;;;;;;;;;5079222;28;20142;-68
2023/08/03 08:01:12;;;;;;;31.88;30.17;;;;;;;;;;5076801;28;20410;-67
2023/08/03 08:03:38;;;;;;;33.92;32.13;;;;;;;;;;5075920;28;20032;-67
2023/08/03 08:06:06;;;;;;;28.10;26.60;;;;;;;;;;5076686;28;20031;-69
2023/08/03 08:08:31;;;;;;;29.85;28.27;;;;;;;;;;5075306;28;20043;-70
2023/08/03 08:10:57;;;;;;;26.45;24.98;;;;;;;;;;5078668;28;20044;-69
2023/08/03 08:13:22;;;;;;;31.80;30.10;;;;;;;;;;5077339;28;20043;-67
2023/08/03 08:15:48;;;;;;;31.23;29.60;;;;;;;;;;5071702;28;20109;-67
2023/08/03 08:18:13;;;;;;;24.27;22.98;;;;;;;;;;5074153;28;20032;-67
2023/08/03 08:20:39;;;;;;;31.10;29.42;;;;;;;;;;5074935;28;20606;-68
2023/08/03 08:23:05;;;;;;;33.92;32.13;;;;;;;;;;5074503;28;20093;-68
2023/08/03 08:25:35;;;;;;;32.75;31.05;;;;;;;;;;5078698;28;20115;-68
2023/08/03 08:28:01;;;;;;;31.38;29.58;;;;;;;;;;5078424;28;20035;-69
2023/08/03 08:30:26;;;;;;;34.70;32.70;;;;;;;;;;5073876;28;20036;-69
2023/08/03 08:32:54;;;;;;;33.47;31.77;;;;;;;;;;5078193;28;20032;-69
2023/08/03 08:35:20;;;;;;;36.30;34.33;;;;;;;;;;5077180;28;20062;-71
2023/08/03 08:37:45;;;;;;;34.50;32.72;;;;;;;;;;5076967;28;20048;-68
2023/08/03 08:40:11;;;;;;;33.08;31.35;;;;;;;;;;5073828;28;20098;-72
2023/08/03 08:42:38;;;;;;;37.67;35.75;;;;;;;;;;5078785;28;20036;-71
2023/08/03 08:45:06;;;;;;;35.00;33.00;;;;;;;;;;5075172;28;20351;-77
2023/08/03 08:47:32;;;;;;;39.53;37.53;;;;;;;;;;5081426;28;20556;-71
2023/08/03 08:49:57;;;;;;;37.03;35.03;;;;;;;;;;5079265;28;20037;-72
2023/08/03 08:52:25;;;;;;;34.97;33.17;;;;;;;;;;5078803;28;20132;-71
2023/08/03 08:54:50;;;;;;;33.63;31.90;;;;;;;;;;5080149;28;20032;-74
2023/08/03 08:57:16;;;;;;;32.28;30.63;;;;;;;;;;5078753;28;20033;-73
2023/08/03 09:00:05;;;;;;;35.67;33.65;;;;;;;;;;5078896;28;20083;-72
2023/08/03 09:02:31;;;;;;;33.00;31.20;;;;;;;;;;5080347;28;20048;-72
2023/08/03 09:04:56;;;;;;;33.83;32.03;;;;;;;;;;5076385;28;20044;-71
2023/08/03 09:07:22;;;;;;;38.58;36.58;;;;;;;;;;5083595;28;20025;-70
2023/08/03 09:09:47;;;;;;;34.42;32.60;;;;;;;;;;5082831;28;20035;-72
2023/08/03 09:12:25;;;;;;;32.38;30.67;;;;;;;;;;5077189;28;20093;-74
2023/08/03 09:14:52;;;;;;;30.60;28.90;;;;;;;;;;5079083;28;20047;-73
2023/08/03 09:17:18;;;;;;;28.83;27.33;;;;;;;;;;5079981;28;20118;-73
2023/08/03 09:19:47;;;;;;;33.33;31.60;;;;;;;;;;5078389;28;20031;-71
2023/08/03 09:22:12;;;;;;;37.08;35.05;;;;;;;;;;5080585;28;20032;-71
2023/08/03 09:24:38;;;;;;;34.80;33.00;;;;;;;;;;5079548;28;20564;-76
2023/08/03 09:27:06;;;;;;;33.25;31.50;;;;;;;;;;5079101;28;20371;-74
2023/08/03 09:29:32;;;;;;;34.15;32.40;;;;;;;;;;5080980;28;20027;-72
2023/08/03 09:32:06;;;;;;;32.55;30.85;;;;;;;;;;5077023;28;20028;-72
2023/08/03 09:34:42;;;;;;;32.33;30.63;;;;;;;;;;5078198;28;20032;-73
2023/08/03 09:37:09;;;;;;;33.70;31.80;;;;;;;;;;5078055;28;20120;-72
2023/08/03 09:39:37;;;;;;;31.77;30.13;;;;;;;;;;5074424;28;20086;-73
2023/08/03 09:42:05;;;;;;;31.95;30.27;;;;;;;;;;5080542;28;20028;-76
2023/08/03 09:44:33;;;;;;;34.63;32.80;;;;;;;;;;5077798;28;20043;-76
2023/08/03 09:47:01;;;;;;;32.45;30.65;;;;;;;;;;5081057;28;20134;-74
2023/08/03 09:49:26;;;;;;;32.35;30.67;;;;;;;;;;5075820;28;20112;-74
2023/08/03 09:51:55;;;;;;;31.25;29.60;;;;;;;;;;5077944;28;20763;-74
2023/08/03 09:54:36;;;;;;;28.58;27.08;;;;;;;;;;5079419;28;20040;-73
2023/08/03 09:57:07;;;;;;;29.42;27.88;;;;;;;;;;5076703;28;20086;-72
2023/08/03 09:59:36;;;;;;;28.33;26.83;;;;;;;;;;5080459;28;20402;-71
2023/08/03 10:02:05;;;;;;;27.95;26.45;;;;;;;;;;5081495;28;20027;-72
2023/08/03 10:04:34;;;;;;;30.13;28.52;;;;;;;;;;5074992;28;21037;-73
2023/08/03 10:07:05;;;;;;;29.85;28.27;;;;;;;;;;5077765;28;20460;-73
2023/08/03 10:09:38;;;;;;;27.90;26.40;;;;;;;;;;5076499;28;20067;-74
2023/08/03 10:12:06;;;;;;;25.63;24.27;;;;;;;;;;5075454;28;20122;-79
2023/08/03 10:14:35;;;;;;;29.02;27.50;;;;;;;;;;5079741;28;20062;-72
2023/08/03 10:17:01;;;;;;;28.08;26.58;;;;;;;;;;5079142;28;20343;-72
2023/08/03 10:19:30;;;;;;;28.15;26.67;;;;;;;;;;5075756;28;20032;-69
2023/08/03 10:21:55;;;;;;;31.80;30.10;;;;;;;;;;5077230;28;20142;-71
2023/08/03 10:24:21;;;;;;;29.52;27.95;;;;;;;;;;5079281;28;20474;-70
2023/08/03 10:26:53;;;;;;;30.33;28.75;;;;;;;;;;5077583;28;20047;-71
2023/08/03 10:29:57;;;;;;;29.10;27.55;;;;;;;;;;5076944;28;20097;-68
2023/08/03 10:32:27;;;;;;;29.90;28.33;;;;;;;;;;5063835;28;20154;-72
2023/08/03 10:34:58;;;;;;;29.77;27.48;;;;;;;;;;5060753;28;20033;-72
2023/08/03 10:37:23;;;;;;;27.08;25.67;;;;;;;;;;5073201;28;20123;-72
2023/08/03 10:39:51;;;;;;;23.95;22.65;;;;;;;;;;5079706;28;20102;-73
2023/08/03 10:42:22;;;;;;;24.52;23.23;;;;;;;;;;5078937;28;20028;-70
2023/08/03 10:44:48;;;;;;;22.70;21.50;;;;;;;;;;5074431;28;20033;-71
2023/08/03 10:47:28;;;;;;;27.88;26.33;;;;;;;;;;5088903;28;20101;-72
2023/08/03 10:49:58;;;;;;;26.23;24.83;;;;;;;;;;5073804;28;20040;-70
2023/08/03 10:52:28;;;;;;;25.05;23.75;;;;;;;;;;5058311;28;20476;-74
2023/08/03 10:54:54;;;;;;;30.77;29.17;;;;;;;;;;5078392;28;20037;-68
2023/08/03 10:57:24;;;;;;;29.88;28.30;;;;;;;;;;5078235;28;20097;-68
2023/08/03 10:59:54;;;;;;;30.52;28.95;;;;;;;;;;5078566;28;20032;-69
2023/08/03 11:02:29;;;;;;;24.92;23.55;;;;;;;;;;5078790;28;20032;-70
2023/08/03 11:05:04;;;;;;;25.13;23.80;;;;;;;;;;5072837;28;20058;-69
2023/08/03 11:07:34;;;;;;;20.50;19.40;;;;;;;;;;5080457;28;20040;-69
2023/08/03 11:10:02;;;;;;;24.63;23.33;;;;;;;;;;5082472;28;20035;-70
2023/08/03 11:12:28;;;;;;;20.98;19.85;;;;;;;;;;5078453;28;20085;-70
2023/08/03 11:14:55;;;;;;;29.27;27.75;;;;;;;;;;5078170;28;20040;-69
2023/08/03 11:17:28;;;;;;;28.45;26.55;;;;;;;;;;5079491;28;20131;-69
2023/08/03 11:19:55;;;;;;;26.00;24.60;;;;;;;;;;5077983;28;20025;-71
2023/08/03 11:22:21;;;;;;;22.33;21.13;;;;;;;;;;5079372;28;20051;-69
2023/08/03 11:24:49;;;;;;;30.30;28.73;;;;;;;;;;5076912;28;20115;-68
2023/08/03 11:27:14;;;;;;;33.60;31.85;;;;;;;;;;5072614;28;20040;-67
2023/08/03 11:29:40;;;;;;;31.48;29.77;;;;;;;;;;5073407;28;20092;-67
2023/08/03 11:32:05;;;;;;;26.65;25.25;;;;;;;;;;5073508;28;20044;-68
2023/08/03 11:34:32;;;;;;;22.88;21.67;;;;;;;;;;5074222;28;20059;-67
2023/08/03 11:36:58;;;;;;;23.17;21.98;;;;;;;;;;5074987;28;20055;-69
2023/08/03 11:39:23;;;;;;;19.40;18.30;;;;;;;;;;5074581;28;20265;-66
2023/08/03 11:41:50;;;;;;;22.52;21.33;;;;;;;;;;5074613;28;20032;-67
2023/08/03 11:44:22;;;;;;;19.90;18.80;;;;;;;;;;5079102;28;20047;-68
2023/08/03 11:47:08;;;;;;;18.00;17.00;;;;;;;;;;5075263;28;20033;-67
2023/08/03 11:49:34;;;;;;;18.52;17.52;;;;;;;;;;5077078;28;20412;-67
2023/08/03 11:52:00;;;;;;;20.80;19.70;;;;;;;;;;5074734;28;20036;-67
2023/08/03 11:54:29;;;;;;;16.95;16.05;;;;;;;;;;5078238;28;20051;-67
2023/08/03 11:58:07;;;;;;;17.02;16.08;;;;;;;;;;5074477;28;20036;-67
2023/08/03 11:59:46;;;;;;;17.60;16.60;;;;;;;;;;5074642;28;20024;-68
2023/08/03 12:02:12;;;;;;;18.35;17.35;;;;;;;;;;5075813;28;20044;-67
2023/08/03 12:04:38;;;;;;;16.83;15.90;;;;;;;;;;5075296;28;20524;-73
2023/08/03 12:07:04;;;;;;;20.52;19.42;;;;;;;;;;5075410;28;20028;-70
2023/08/03 12:09:38;;;;;;;21.88;20.70;;;;;;;;;;5075057;28;20089;-75
2023/08/03 12:12:06;;;;;;;21.00;19.88;;;;;;;;;;5076214;28;20370;-72
2023/08/03 12:14:32;;;;;;;22.05;20.85;;;;;;;;;;5076291;28;20655;-74
2023/08/03 12:16:57;;;;;;;22.42;21.23;;;;;;;;;;5069789;28;20048;-72
2023/08/03 12:19:22;;;;;;;26.58;25.17;;;;;;;;;;5076419;28;20028;-70
2023/08/03 12:21:48;;;;;;;27.17;25.75;;;;;;;;;;5077474;28;20084;-73
2023/08/03 12:24:13;;;;;;;29.73;28.17;;;;;;;;;;5073585;28;20116;-72
2023/08/03 12:26:40;;;;;;;25.50;24.15;;;;;;;;;;5073297;28;20450;-73
2023/08/03 12:29:05;;;;;;;26.15;24.75;;;;;;;;;;5075574;28;20031;-76
2023/08/03 12:31:33;;;;;;;16.40;15.50;;;;;;;;;;5072966;28;20024;-71
2023/08/03 12:33:59;;;;;;;14.25;13.45;;;;;;;;;;5075928;28;20111;-75
2023/08/03 12:36:25;;;;;;;16.27;15.38;;;;;;;;;;5074405;28;20097;-73
2023/08/03 12:38:51;;;;;;;16.83;15.93;;;;;;;;;;5074420;28;20028;-73
2023/08/03 12:41:19;;;;;;;17.70;16.70;;;;;;;;;;5072249;28;20338;-72
2023/08/03 12:43:47;;;;;;;19.33;18.27;;;;;;;;;;5071411;28;20032;-74
2023/08/03 12:46:13;;;;;;;14.27;13.35;;;;;;;;;;5075317;28;20459;-73
2023/08/03 12:48:38;;;;;;;23.23;21.98;;;;;;;;;;5074295;28;20101;-73
2023/08/03 12:51:04;;;;;;;21.77;20.60;;;;;;;;;;5075290;28;20032;-74
2023/08/03 12:53:30;;;;;;;23.33;22.08;;;;;;;;;;5075670;28;20040;-73
2023/08/03 12:55:56;;;;;;;21.38;20.23;;;;;;;;;;5073877;28;20038;-72
2023/08/03 12:58:21;;;;;;;12.90;12.15;;;;;;;;;;5076482;28;20044;-72
2023/08/03 13:00:47;;;;;;;13.23;12.43;;;;;;;;;;5076158;28;20676;-74
2023/08/03 13:03:12;;;;;;;13.52;12.73;;;;;;;;;;5076689;28;20032;-71
2023/08/03 13:05:38;;;;;;;12.85;12.05;;;;;;;;;;5074437;28;20493;-79
2023/08/03 13:08:03;;;;;;;13.48;12.68;;;;;;;;;;5077289;28;20684;-73
2023/08/03 13:10:29;;;;;;;13.70;12.90;;;;;;;;;;5076217;28;20645;-74
2023/08/03 13:12:54;;;;;;;14.30;13.50;;;;;;;;;;5073838;28;20086;-72
2023/08/03 13:15:21;;;;;;;15.38;14.48;;;;;;;;;;5074833;28;20032;-72
2023/08/03 13:17:46;;;;;;;14.70;13.88;;;;;;;;;;5076698;28;20028;-72
2023/08/03 13:20:11;;;;;;;17.25;16.30;;;;;;;;;;5077490;28;20165;-74
2023/08/03 13:22:37;;;;;;;13.95;13.15;;;;;;;;;;5072938;28;20140;-76
2023/08/03 13:25:03;;;;;;;13.88;13.07;;;;;;;;;;5077141;28;20039;-73
2023/08/03 13:27:29;;;;;;;13.77;12.98;;;;;;;;;;5077086;28;20209;-72
2023/08/03 13:29:55;;;;;;;13.98;13.18;;;;;;;;;;5077774;28;20040;-70
2023/08/03 13:32:22;;;;;;;15.02;14.18;;;;;;;;;;5077721;28;20038;-72
2023/08/03 13:34:47;;;;;;;15.68;14.77;;;;;;;;;;5077162;28;20051;-71
2023/08/03 13:37:13;;;;;;;12.98;12.23;;;;;;;;;;5080023;28;20484;-72
2023/08/03 13:39:38;;;;;;;17.70;16.70;;;;;;;;;;5077327;28;20034;-72
2023/08/03 13:42:04;;;;;;;13.85;13.05;;;;;;;;;;5079855;28;20466;-70
2023/08/03 13:44:29;;;;;;;14.35;13.55;;;;;;;;;;5079999;28;20029;-70
2023/08/03 13:46:55;;;;;;;14.13;13.30;;;;;;;;;;5078645;28;20505;-70
2023/08/03 13:49:20;;;;;;;15.07;14.15;;;;;;;;;;5078712;28;20052;-67
2023/08/03 13:51:46;;;;;;;15.85;14.95;;;;;;;;;;5076712;28;20039;-68
2023/08/03 13:54:11;;;;;;;15.77;14.88;;;;;;;;;;5076483;28;20040;-68
2023/08/03 13:56:37;;;;;;;16.10;15.20;;;;;;;;;;5069520;28;20028;-67
2023/08/03 13:59:02;;;;;;;17.08;16.15;;;;;;;;;;5078266;28;20035;-68
2023/08/03 14:01:34;;;;;;;15.90;15.00;;;;;;;;;;5077728;28;20040;-67
2023/08/03 14:04:00;;;;;;;16.65;15.75;;;;;;;;;;5077196;28;20090;-66
2023/08/03 14:06:26;;;;;;;15.10;14.25;;;;;;;;;;5077156;28;20036;-66
2023/08/03 14:08:51;;;;;;;21.90;20.63;;;;;;;;;;5080173;28;20343;-70
2023/08/03 14:11:17;;;;;;;15.13;14.25;;;;;;;;;;5079313;28;20358;-68
2023/08/03 14:13:43;;;;;;;20.73;19.63;;;;;;;;;;5079401;28;20094;-66